Time;durP1;ratioP1;P1;durP2;ratioP2;P2;SDS_P1;SDS_P2;PMS_P1;PMS_P2;Temp;Humidity;BMP_temperature;BMP_pressure;BME280_temperature;BME280_humidity;BME280_pressure;Samples;Min_cycle;Max_cycle;Signal;HPM_P1;HPM_P2
2023/01/19 00:00:01;;;;;;;85.28;39.00;;;2.50;99.90;;;;;;2621376;46;20047;31
2023/01/19 00:02:35;;;;;;;68.07;33.42;;;2.60;99.90;;;;;;2603526;54;20759;31
2023/01/19 00:05:11;;;;;;;67.45;34.17;;;2.50;99.90;;;;;;2603320;54;20850;31
2023/01/19 00:07:48;;;;;;;68.28;33.42;;;2.60;99.90;;;;;;2603409;54;20837;31
2023/01/19 00:10:22;;;;;;;79.15;36.85;;;2.60;99.90;;;;;;2603593;54;20030;31
2023/01/19 00:12:57;;;;;;;75.50;37.30;;;2.50;99.90;;;;;;2621888;46;20033;31
2023/01/19 00:15:33;;;;;;;74.22;37.90;;;2.50;99.90;;;;;;2621767;46;20921;31
2023/01/19 00:18:08;;;;;;;63.40;33.10;;;2.60;99.90;;;;;;2603242;54;20161;31
2023/01/19 00:20:43;;;;;;;86.68;39.30;;;2.60;99.90;;;;;;2603411;54;20226;31
2023/01/19 00:23:21;;;;;;;79.90;38.55;;;2.50;99.90;;;;;;2603354;54;20035;31
2023/01/19 00:25:55;;;;;;;57.70;31.87;;;2.50;99.90;;;;;;2603562;54;20088;31
2023/01/19 00:28:30;;;;;;;62.15;32.40;;;2.50;99.90;;;;;;2603414;54;19942;31
2023/01/19 00:31:06;;;;;;;70.10;36.40;;;2.60;99.90;;;;;;2603594;54;20041;31
2023/01/19 00:33:47;;;;;;;76.47;36.87;;;2.50;99.90;;;;;;2622073;46;20034;31
2023/01/19 00:36:22;;;;;;;78.15;39.55;;;2.60;99.90;;;;;;2603385;54;20026;31
2023/01/19 00:38:59;;;;;;;77.30;36.95;;;2.50;99.90;;;;;;2603305;54;20724;31
2023/01/19 00:44:19;;;;;;;69.97;34.65;;;2.60;99.90;;;;;;2603539;54;20120;31
2023/01/19 00:46:54;;;;;;;60.05;30.25;;;2.60;99.90;;;;;;2603522;54;20030;31
2023/01/19 00:49:29;;;;;;;72.30;36.38;;;2.50;99.90;;;;;;2621786;46;20048;31
2023/01/19 00:52:03;;;;;;;62.30;32.35;;;2.50;99.90;;;;;;2603312;54;20032;31
2023/01/19 00:54:37;;;;;;;63.20;31.70;;;2.60;99.90;;;;;;2603462;54;20100;31
2023/01/19 00:57:18;;;;;;;48.15;26.38;;;2.50;99.90;;;;;;2603448;54;20939;31
2023/01/19 00:59:52;;;;;;;46.45;25.20;;;2.50;99.90;;;;;;2603591;54;20023;31
2023/01/19 01:02:26;;;;;;;34.75;20.45;;;2.50;99.90;;;;;;2603570;54;20812;31
2023/01/19 01:05:02;;;;;;;31.13;17.73;;;2.40;99.90;;;;;;2603295;54;20889;31
2023/01/19 01:07:39;;;;;;;25.97;15.73;;;2.30;99.90;;;;;;2603368;54;20931;31
2023/01/19 01:10:14;;;;;;;24.25;14.05;;;2.30;99.90;;;;;;2603442;54;21251;31
2023/01/19 01:12:54;;;;;;;21.35;12.77;;;2.20;99.90;;;;;;2603616;54;20027;31
2023/01/19 01:15:31;;;;;;;21.02;12.43;;;2.20;99.90;;;;;;2603453;54;20889;31
2023/01/19 01:18:07;;;;;;;21.92;13.52;;;2.20;99.90;;;;;;2621378;46;20085;31
2023/01/19 01:20:43;;;;;;;19.48;11.27;;;2.20;99.90;;;;;;2621872;46;20097;31
2023/01/19 01:23:21;;;;;;;16.17;10.10;;;2.10;99.90;;;;;;2603193;54;20904;31
2023/01/19 01:25:56;;;;;;;16.65;10.30;;;2.00;99.90;;;;;;2603443;54;20785;31
2023/01/19 01:28:34;;;;;;;17.85;10.40;;;2.00;99.90;;;;;;2603325;54;20156;31
2023/01/19 01:31:08;;;;;;;17.85;11.13;;;1.90;99.90;;;;;;2603506;54;20026;31
2023/01/19 01:33:42;;;;;;;18.30;11.57;;;2.00;99.90;;;;;;2603360;54;20105;31
2023/01/19 01:36:17;;;;;;;18.23;11.38;;;2.00;99.90;;;;;;2603500;54;20030;31
2023/01/19 01:38:53;;;;;;;16.45;11.27;;;1.90;99.90;;;;;;2603390;54;20871;31
2023/01/19 01:41:27;;;;;;;17.87;11.03;;;1.90;99.90;;;;;;2603383;54;20720;31
2023/01/19 01:44:07;;;;;;;18.95;10.50;;;2.00;99.90;;;;;;2603327;54;20828;31
2023/01/19 01:46:41;;;;;;;16.87;10.23;;;2.00;99.90;;;;;;2621575;46;20038;31
2023/01/19 01:49:19;;;;;;;16.25;9.23;;;2.00;99.90;;;;;;2603197;54;20105;31
2023/01/19 01:51:54;;;;;;;15.55;9.70;;;2.00;99.90;;;;;;2603400;54;20851;31
2023/01/19 01:54:29;;;;;;;14.88;9.38;;;2.00;99.90;;;;;;2603275;54;20109;31
2023/01/19 01:57:05;;;;;;;14.70;9.60;;;2.00;99.90;;;;;;2603428;54;20045;31
2023/01/19 01:59:43;;;;;;;15.25;9.80;;;2.00;99.90;;;;;;2603403;54;20068;31
2023/01/19 02:05:06;;;;;;;13.10;8.80;;;2.00;99.90;;;;;;2603141;54;20042;31
2023/01/19 02:13:24;;;;;;;13.02;9.50;;;2.00;99.90;;;;;;2603216;54;20030;31
2023/01/19 02:16:02;;;;;;;11.35;8.68;;;2.00;99.90;;;;;;2603211;54;20022;31
2023/01/19 02:18:37;;;;;;;12.18;9.30;;;2.00;99.90;;;;;;2602954;54;20050;31
2023/01/19 02:21:13;;;;;;;13.63;9.63;;;1.90;99.90;;;;;;2603181;54;20026;31
2023/01/19 02:23:51;;;;;;;12.50;9.03;;;1.90;99.90;;;;;;2603216;54;20822;31
2023/01/19 02:26:26;;;;;;;11.90;8.40;;;2.00;99.90;;;;;;2603298;54;20948;31
2023/01/19 02:29:02;;;;;;;13.00;8.77;;;1.90;99.90;;;;;;2602225;54;20034;31
2023/01/19 02:31:36;;;;;;;10.97;8.60;;;2.00;99.90;;;;;;2701709;39;22504;31
2023/01/19 02:34:11;;;;;;;11.13;7.57;;;1.90;99.90;;;;;;2602976;54;20335;31
2023/01/19 02:36:49;;;;;;;12.10;8.25;;;1.90;99.90;;;;;;2603173;54;20093;31
2023/01/19 02:39:28;;;;;;;11.80;8.20;;;1.90;99.90;;;;;;2603302;54;20022;31
2023/01/19 02:42:05;;;;;;;11.00;8.02;;;1.90;99.90;;;;;;2603148;54;20058;31
2023/01/19 02:44:39;;;;;;;12.02;8.70;;;1.90;99.90;;;;;;2603136;54;20145;31
2023/01/19 02:47:15;;;;;;;10.20;8.00;;;1.80;99.90;;;;;;2602877;54;20026;31
2023/01/19 02:49:58;;;;;;;10.80;7.07;;;1.80;99.90;;;;;;2602950;54;20807;31
2023/01/19 02:52:31;;;;;;;8.90;6.35;;;1.80;99.90;;;;;;2603242;54;20023;31
2023/01/19 02:55:11;;;;;;;9.70;6.90;;;1.70;99.90;;;;;;2603372;54;20023;31
2023/01/19 02:57:53;;;;;;;9.68;7.18;;;1.80;99.90;;;;;;2603166;54;20022;31
2023/01/19 03:00:33;;;;;;;9.07;6.73;;;1.70;99.90;;;;;;2602879;54;20897;31
2023/01/19 03:03:15;;;;;;;8.80;7.18;;;1.80;99.90;;;;;;2603078;54;20246;31
2023/01/19 03:05:57;;;;;;;8.60;6.93;;;1.70;99.90;;;;;;2603012;54;20026;31
2023/01/19 03:08:44;;;;;;;10.15;6.95;;;1.70;99.90;;;;;;2603172;54;20033;31
2023/01/19 03:11:21;;;;;;;11.20;7.75;;;1.70;99.90;;;;;;2603231;54;20050;31
2023/01/19 03:13:56;;;;;;;9.97;7.77;;;1.70;99.90;;;;;;2603182;54;20873;31
2023/01/19 03:16:32;;;;;;;12.65;8.65;;;1.70;99.90;;;;;;2602906;54;20959;31
2023/01/19 03:19:07;;;;;;;10.87;7.83;;;1.70;99.90;;;;;;2602934;54;20917;31
2023/01/19 03:21:43;;;;;;;11.52;8.57;;;1.70;99.90;;;;;;2603011;54;20030;31
2023/01/19 03:24:19;;;;;;;10.93;8.20;;;1.70;99.90;;;;;;2602954;54;20109;31
2023/01/19 03:26:58;;;;;;;11.40;8.75;;;1.60;99.90;;;;;;2621644;47;20888;31
2023/01/19 03:29:33;;;;;;;13.52;8.73;;;1.70;99.90;;;;;;2791588;31;21181;31
2023/01/19 03:32:09;;;;;;;12.00;8.85;;;1.70;99.90;;;;;;2603108;54;20027;31
2023/01/19 03:34:45;;;;;;;10.88;7.95;;;1.70;99.90;;;;;;2602727;54;20803;31
2023/01/19 03:37:20;;;;;;;12.40;9.15;;;1.70;99.90;;;;;;2602999;54;20096;31
2023/01/19 03:39:55;;;;;;;10.17;8.37;;;1.70;99.90;;;;;;2602898;54;20027;31
2023/01/19 03:42:33;;;;;;;12.40;8.80;;;1.70;99.90;;;;;;2603662;54;20802;31
2023/01/19 03:45:08;;;;;;;11.35;8.35;;;1.70;99.90;;;;;;2603854;54;20027;31
2023/01/19 03:47:44;;;;;;;12.60;8.93;;;1.70;99.90;;;;;;2603678;54;20022;31
2023/01/19 03:50:22;;;;;;;11.65;8.35;;;1.70;99.90;;;;;;2603399;54;20049;31
2023/01/19 03:53:03;;;;;;;13.63;9.60;;;1.70;99.90;;;;;;2603808;54;20132;31
2023/01/19 03:55:39;;;;;;;16.40;9.45;;;1.60;99.90;;;;;;2603810;54;20897;31
2023/01/19 03:58:17;;;;;;;;;;;1.60;99.90;;;;;;2603991;54;20026;31
2023/01/19 04:00:52;;;;;;;16.10;9.68;;;1.60;99.90;;;;;;2603658;54;20702;31
2023/01/19 04:03:27;;;;;;;15.27;10.43;;;1.60;99.90;;;;;;2622034;46;20100;31
2023/01/19 04:06:01;;;;;;;16.13;11.13;;;1.60;99.90;;;;;;2603717;54;20046;31
2023/01/19 04:08:36;;;;;;;17.85;11.60;;;1.60;99.90;;;;;;2603466;54;20089;31
2023/01/19 04:11:12;;;;;;;18.90;11.95;;;1.60;99.90;;;;;;2603401;54;20033;31
2023/01/19 04:13:50;;;;;;;21.15;13.55;;;1.60;99.90;;;;;;2603656;54;20097;31
2023/01/19 04:16:25;;;;;;;23.73;13.32;;;1.60;99.90;;;;;;2603427;54;20028;31
2023/01/19 04:18:59;;;;;;;26.35;14.88;;;1.50;99.90;;;;;;2603717;54;20050;31
2023/01/19 04:21:34;;;;;;;23.75;13.80;;;1.60;99.90;;;;;;2603506;54;20928;31
2023/01/19 04:24:09;;;;;;;27.43;15.87;;;1.60;99.90;;;;;;2603912;54;20026;31
2023/01/19 04:26:44;;;;;;;31.52;18.48;;;1.60;99.90;;;;;;2603714;54;20327;31
2023/01/19 04:29:21;;;;;;;31.60;17.07;;;1.50;99.90;;;;;;2603585;54;20022;31
2023/01/19 04:31:56;;;;;;;28.85;17.10;;;1.50;99.90;;;;;;2603433;54;20049;31
2023/01/19 04:34:30;;;;;;;34.33;17.35;;;1.50;99.90;;;;;;2603550;54;20812;31
2023/01/19 04:37:07;;;;;;;35.33;17.92;;;1.50;99.90;;;;;;2603661;54;20904;31
2023/01/19 04:39:41;;;;;;;34.05;18.65;;;1.50;99.90;;;;;;2603664;54;20022;31
2023/01/19 04:42:16;;;;;;;35.85;18.80;;;1.50;99.90;;;;;;2603582;54;20145;31
2023/01/19 04:44:53;;;;;;;34.43;18.53;;;1.50;99.90;;;;;;2603422;54;20934;31
2023/01/19 04:47:27;;;;;;;33.90;18.25;;;1.50;99.90;;;;;;2603374;54;20238;31
2023/01/19 04:50:04;;;;;;;33.83;19.10;;;1.50;99.90;;;;;;2603606;54;20903;31
2023/01/19 04:52:38;;;;;;;31.95;19.15;;;1.50;99.90;;;;;;2603333;54;20844;31
2023/01/19 04:55:13;;;;;;;31.65;18.35;;;1.50;99.90;;;;;;2603547;54;20097;31
2023/01/19 04:57:48;;;;;;;28.75;17.30;;;1.60;99.90;;;;;;2603573;54;20030;31
2023/01/19 05:00:26;;;;;;;36.53;20.15;;;1.60;99.90;;;;;;2603399;54;20027;31
2023/01/19 05:03:00;;;;;;;34.63;19.10;;;1.60;99.90;;;;;;2603441;54;20845;31
2023/01/19 05:05:35;;;;;;;33.95;18.65;;;1.60;99.90;;;;;;2603592;54;20086;31
2023/01/19 05:08:10;;;;;;;31.65;18.40;;;1.60;99.90;;;;;;2603580;54;20029;31
2023/01/19 05:10:44;;;;;;;34.30;18.77;;;1.60;99.90;;;;;;2603215;54;20816;31
2023/01/19 05:13:20;;;;;;;30.00;17.23;;;1.70;99.90;;;;;;2603271;54;20884;31
2023/01/19 05:15:58;;;;;;;28.67;17.83;;;1.60;99.90;;;;;;2603399;54;20257;31
2023/01/19 05:18:35;;;;;;;31.70;18.73;;;1.70;99.90;;;;;;2603077;54;20895;31
2023/01/19 05:21:09;;;;;;;29.67;17.67;;;1.70;99.90;;;;;;2621286;46;20854;31
2023/01/19 05:23:43;;;;;;;31.58;17.38;;;1.70;99.90;;;;;;2603454;54;20075;31
2023/01/19 05:26:18;;;;;;;29.02;17.20;;;1.70;99.90;;;;;;2602471;54;20018;31
2023/01/19 05:28:53;;;;;;;28.33;16.65;;;1.70;99.90;;;;;;2603384;54;21595;31
2023/01/19 05:31:30;;;;;;;31.10;18.93;;;1.70;99.90;;;;;;2603154;54;19934;31
2023/01/19 05:34:06;;;;;;;25.08;15.68;;;1.70;99.90;;;;;;2603239;54;20030;31
2023/01/19 05:36:40;;;;;;;25.65;15.02;;;1.60;99.90;;;;;;2603436;54;20023;31
2023/01/19 05:39:15;;;;;;;26.70;16.83;;;1.70;99.90;;;;;;2603489;54;20841;31
2023/01/19 05:41:49;;;;;;;27.13;16.37;;;1.60;99.90;;;;;;2603253;54;20886;31
2023/01/19 05:44:23;;;;;;;26.15;15.15;;;1.60;99.90;;;;;;2603326;54;19935;31
2023/01/19 05:47:00;;;;;;;24.00;15.73;;;1.60;99.90;;;;;;2602647;54;20975;31
2023/01/19 05:49:34;;;;;;;24.95;15.27;;;1.60;99.90;;;;;;2603355;54;20381;31
2023/01/19 05:52:08;;;;;;;22.05;14.07;;;1.60;99.90;;;;;;2603292;54;20023;31
2023/01/19 05:54:43;;;;;;;25.25;15.50;;;1.50;99.90;;;;;;2602524;54;20038;31
2023/01/19 05:57:21;;;;;;;22.67;13.27;;;1.50;99.90;;;;;;2603186;54;20101;31
2023/01/19 05:59:56;;;;;;;;;;;1.50;99.90;;;;;;2603554;54;20802;31
2023/01/19 06:02:34;;;;;;;22.15;13.05;;;1.50;99.90;;;;;;2603146;54;19941;31
2023/01/19 06:05:11;;;;;;;21.30;13.40;;;1.50;99.90;;;;;;2603070;54;20906;31
2023/01/19 06:07:46;;;;;;;21.10;12.70;;;1.50;99.90;;;;;;2603101;54;20845;31
2023/01/19 06:10:22;;;;;;;23.08;14.05;;;1.60;99.90;;;;;;2602446;54;20965;31
2023/01/19 06:12:57;;;;;;;;;;;1.50;99.90;;;;;;2603409;54;20023;31
2023/01/19 06:15:32;;;;;;;18.23;11.70;;;1.50;99.90;;;;;;2603376;54;19934;31
2023/01/19 06:18:10;;;;;;;21.02;11.65;;;1.50;99.90;;;;;;2603316;54;20029;31
2023/01/19 06:20:46;;;;;;;18.58;12.27;;;1.50;99.90;;;;;;2603325;54;20033;31
2023/01/19 06:23:21;;;;;;;20.00;13.05;;;1.50;99.90;;;;;;2603277;54;19935;31
2023/01/19 06:25:55;;;;;;;18.08;11.90;;;1.40;99.90;;;;;;2603008;54;20026;31
2023/01/19 06:28:31;;;;;;;17.60;10.48;;;1.40;99.90;;;;;;2621674;46;20822;31
2023/01/19 06:31:06;;;;;;;14.40;9.40;;;1.40;99.90;;;;;;2603327;54;20060;31
2023/01/19 06:33:44;;;;;;;14.85;8.95;;;1.50;99.90;;;;;;2602509;54;21047;31
2023/01/19 06:36:20;;;;;;;13.50;9.20;;;1.40;99.90;;;;;;2603039;54;20053;31
2023/01/19 06:41:25;;;;;;;12.40;9.05;;;1.40;99.90;;;;;;2603231;54;20153;31
2023/01/19 06:44:01;;;;;;;12.40;8.35;;;1.40;99.90;;;;;;2621210;47;20027;31
2023/01/19 06:46:35;;;;;;;12.05;8.90;;;1.40;99.90;;;;;;2602670;54;20030;31
2023/01/19 06:49:14;;;;;;;10.50;7.50;;;1.40;99.90;;;;;;2603121;54;20875;31
2023/01/19 06:51:52;;;;;;;11.90;8.45;;;1.40;99.90;;;;;;2603210;54;20022;31
2023/01/19 06:54:28;;;;;;;10.25;7.20;;;1.40;99.90;;;;;;2603167;54;20034;31
2023/01/19 06:57:01;;;;;;;9.35;6.68;;;1.30;99.90;;;;;;2772916;31;22542;31
2023/01/19 06:59:37;;;;;;;10.32;7.30;;;1.40;99.90;;;;;;2621349;47;20022;31
2023/01/19 07:02:13;;;;;;;11.90;8.75;;;1.40;99.90;;;;;;2602982;54;19942;31
2023/01/19 07:05:05;;;;;;;15.82;8.77;;;1.30;99.90;;;;;;2602973;54;20057;31
2023/01/19 07:07:41;;;;;;;30.33;11.30;;;1.30;99.90;;;;;;2603121;54;20029;31
2023/01/19 07:10:20;;;;;;;16.00;10.15;;;1.40;99.90;;;;;;2603189;54;20917;31
2023/01/19 07:12:55;;;;;;;15.75;9.38;;;1.40;99.90;;;;;;2621419;47;20026;31
2023/01/19 07:15:29;;;;;;;17.60;11.18;;;1.30;99.90;;;;;;2773631;31;22429;31
2023/01/19 07:18:06;;;;;;;19.50;10.73;;;1.30;99.90;;;;;;2603108;54;22374;31
2023/01/19 07:20:45;;;;;;;17.23;9.75;;;1.30;99.90;;;;;;2603744;54;20022;31
2023/01/19 07:23:21;;;;;;;13.83;7.97;;;1.30;99.90;;;;;;2603677;54;20113;31
2023/01/19 07:25:55;;;;;;;19.85;9.25;;;1.30;99.90;;;;;;2603879;54;20131;31
2023/01/19 07:28:31;;;;;;;16.60;8.60;;;1.30;99.90;;;;;;2603811;54;20026;31
2023/01/19 07:31:06;;;;;;;11.17;7.60;;;1.30;99.90;;;;;;2622146;46;20099;31
2023/01/19 07:33:41;;;;;;;13.05;8.40;;;1.30;99.90;;;;;;2603796;54;20077;31
2023/01/19 07:36:21;;;;;;;12.93;8.38;;;1.40;99.90;;;;;;2603674;54;20104;31
2023/01/19 07:38:57;;;;;;;11.60;8.00;;;1.40;99.90;;;;;;2604052;54;20144;31
2023/01/19 07:41:32;;;;;;;14.40;8.00;;;1.40;99.90;;;;;;2603888;54;20052;31
2023/01/19 07:44:08;;;;;;;11.10;7.80;;;1.40;99.90;;;;;;2603545;54;20105;31
2023/01/19 07:46:44;;;;;;;12.53;8.23;;;1.40;99.90;;;;;;2603583;54;20033;31
2023/01/19 07:49:20;;;;;;;15.93;9.63;;;1.40;99.90;;;;;;2603696;54;20115;31
2023/01/19 07:51:58;;;;;;;;;;;1.40;99.90;;;;;;2603146;54;20937;31
2023/01/19 07:54:33;;;;;;;10.52;7.43;;;1.40;99.90;;;;;;2603757;54;19961;31
2023/01/19 07:57:09;;;;;;;13.80;7.70;;;1.40;99.90;;;;;;2603834;54;20026;31
2023/01/19 07:59:44;;;;;;;14.65;8.18;;;1.40;99.90;;;;;;2603759;54;20089;31
2023/01/19 08:02:21;;;;;;;14.88;9.30;;;1.40;99.90;;;;;;2603768;54;20805;31
2023/01/19 08:04:56;;;;;;;15.65;9.00;;;1.40;99.90;;;;;;2603594;54;20022;31
2023/01/19 08:07:37;;;;;;;13.50;8.20;;;1.30;99.90;;;;;;2621875;46;20901;31
2023/01/19 08:10:15;;;;;;;12.95;8.40;;;1.40;99.90;;;;;;2603708;54;20033;31
2023/01/19 08:12:50;;;;;;;13.45;8.15;;;1.40;99.90;;;;;;2622076;46;20136;31
2023/01/19 08:15:27;;;;;;;14.35;9.05;;;1.40;99.90;;;;;;2603783;54;20732;31
2023/01/19 08:18:04;;;;;;;14.40;9.25;;;1.40;99.90;;;;;;2603563;54;20022;31
2023/01/19 08:20:39;;;;;;;16.25;10.40;;;1.40;99.90;;;;;;2603725;54;20047;31
2023/01/19 08:23:17;;;;;;;16.95;10.63;;;1.40;99.90;;;;;;2603716;54;20027;31
2023/01/19 08:25:52;;;;;;;15.20;10.35;;;1.50;99.90;;;;;;2603477;54;20032;31
2023/01/19 08:28:27;;;;;;;16.60;9.30;;;1.50;99.90;;;;;;2603549;54;20047;31
2023/01/19 08:31:02;;;;;;;14.13;9.02;;;1.60;99.90;;;;;;2603526;54;20085;31
2023/01/19 08:33:54;;;;;;;15.45;9.60;;;1.50;99.90;;;;;;2603454;54;20026;31
2023/01/19 08:36:30;;;;;;;18.63;10.32;;;1.60;99.90;;;;;;2621972;46;20034;31
2023/01/19 08:39:11;;;;;;;16.98;10.35;;;1.50;99.90;;;;;;2603489;54;20056;31
2023/01/19 08:41:45;;;;;;;19.75;11.30;;;1.50;99.90;;;;;;2603593;54;20849;31
2023/01/19 08:44:20;;;;;;;16.38;10.93;;;1.60;99.90;;;;;;2603472;54;20054;31
2023/01/19 08:46:56;;;;;;;15.03;10.87;;;1.60;99.90;;;;;;2603769;54;20026;31
2023/01/19 08:49:32;;;;;;;19.67;11.55;;;1.60;99.90;;;;;;2603393;54;20101;31
2023/01/19 08:52:07;;;;;;;16.70;9.90;;;1.60;99.90;;;;;;2603376;54;20718;31
2023/01/19 08:54:46;;;;;;;21.60;12.10;;;1.60;99.90;;;;;;2603395;54;20019;31
2023/01/19 08:57:21;;;;;;;16.42;9.88;;;1.70;99.90;;;;;;2603141;54;20949;31
2023/01/19 08:59:57;;;;;;;19.45;10.90;;;1.60;99.90;;;;;;2603593;54;20794;31
2023/01/19 09:02:33;;;;;;;18.55;11.70;;;1.70;99.90;;;;;;2603568;54;20886;31
2023/01/19 09:05:11;;;;;;;18.20;11.27;;;1.70;99.90;;;;;;2603677;54;20046;31
2023/01/19 09:07:48;;;;;;;22.15;11.40;;;1.70;99.90;;;;;;2603564;54;20026;31
2023/01/19 09:10:23;;;;;;;17.58;10.30;;;1.70;99.90;;;;;;2603394;54;20022;31
2023/01/19 09:13:03;;;;;;;17.95;11.40;;;1.80;99.90;;;;;;2603607;54;20071;31
2023/01/19 09:15:38;;;;;;;23.13;11.90;;;1.80;99.90;;;;;;2603465;54;20030;31
2023/01/19 09:18:14;;;;;;;26.75;11.55;;;1.90;99.90;;;;;;2603332;54;20039;31
2023/01/19 09:20:50;;;;;;;28.23;13.07;;;1.90;99.90;;;;;;2602568;54;20966;31
2023/01/19 09:23:25;;;;;;;19.73;11.23;;;1.90;99.90;;;;;;2603545;54;20033;31
2023/01/19 09:26:02;;;;;;;18.83;11.83;;;1.80;99.90;;;;;;2603366;54;20104;31
2023/01/19 09:28:40;;;;;;;27.67;13.90;;;1.80;99.90;;;;;;2603223;54;20980;31
2023/01/19 09:31:16;;;;;;;21.30;11.95;;;1.90;99.90;;;;;;2603350;54;20122;31
2023/01/19 09:33:51;;;;;;;19.80;11.98;;;1.90;99.90;;;;;;2603413;54;20026;31
2023/01/19 09:36:26;;;;;;;21.45;10.85;;;2.00;99.90;;;;;;2603372;54;20862;31
2023/01/19 09:39:01;;;;;;;16.98;10.55;;;2.20;99.90;;;;;;2603142;54;20031;31
2023/01/19 09:41:39;;;;;;;16.35;10.32;;;2.30;99.90;;;;;;2603184;54;20897;31
2023/01/19 09:44:19;;;;;;;16.40;9.40;;;2.50;99.90;;;;;;2603194;54;20030;31
2023/01/19 09:46:55;;;;;;;14.02;9.70;;;2.70;99.90;;;;;;2603302;54;20983;31
2023/01/19 09:49:33;;;;;;;14.93;9.25;;;2.90;99.90;;;;;;2603001;54;20924;31
2023/01/19 09:52:08;;;;;;;15.07;10.00;;;3.10;99.90;;;;;;2603270;54;20028;31
2023/01/19 09:54:51;;;;;;;17.02;8.63;;;3.20;99.90;;;;;;2603258;54;20242;31
2023/01/19 09:57:28;;;;;;;14.57;8.70;;;3.40;99.90;;;;;;2603319;54;20035;31
2023/01/19 10:00:14;;;;;;;14.88;9.43;;;3.60;99.90;;;;;;2603228;54;20034;31
2023/01/19 10:02:53;;;;;;;19.90;9.90;;;3.70;99.90;;;;;;2603121;54;20023;31
2023/01/19 10:05:31;;;;;;;12.85;8.95;;;3.80;99.90;;;;;;2602506;54;20034;31
2023/01/19 10:08:16;;;;;;;16.65;9.25;;;4.00;99.90;;;;;;2602442;54;20141;31
2023/01/19 10:10:54;;;;;;;15.15;9.25;;;4.20;99.90;;;;;;2603061;54;20965;31
2023/01/19 10:13:29;;;;;;;17.67;9.40;;;4.40;99.90;;;;;;2603081;54;19934;31
2023/01/19 10:16:12;;;;;;;20.95;10.27;;;4.60;99.90;;;;;;2603007;54;20053;31
2023/01/19 10:18:50;;;;;;;13.83;8.63;;;4.70;99.90;;;;;;2621044;46;20028;31
2023/01/19 10:21:25;;;;;;;15.40;8.85;;;4.80;99.90;;;;;;2603107;54;20030;31
2023/01/19 10:24:08;;;;;;;16.23;9.20;;;4.80;99.90;;;;;;2603138;54;20053;31
2023/01/19 10:26:44;;;;;;;23.80;9.80;;;4.70;99.90;;;;;;2602931;54;20855;31
2023/01/19 10:29:23;;;;;;;35.17;10.57;;;4.80;99.90;;;;;;2602742;54;20955;31
2023/01/19 10:32:07;;;;;;;20.45;9.95;;;4.80;99.90;;;;;;2603234;54;20854;31
2023/01/19 10:34:45;;;;;;;15.23;9.13;;;4.80;99.90;;;;;;2602794;54;20030;31
2023/01/19 10:37:20;;;;;;;;;;;4.80;99.90;;;;;;2603607;54;20847;31
2023/01/19 10:39:57;;;;;;;16.27;7.88;;;4.90;99.90;;;;;;2602172;54;19942;31
2023/01/19 10:42:32;;;;;;;12.98;8.13;;;4.90;99.90;;;;;;2603059;54;20023;31
2023/01/19 10:45:15;;;;;;;13.97;8.83;;;4.90;99.90;;;;;;2603043;54;20915;31
2023/01/19 10:47:54;;;;;;;13.05;9.25;;;4.90;99.90;;;;;;2621515;47;21180;31
2023/01/19 10:50:35;;;;;;;12.00;7.80;;;5.00;99.90;;;;;;2603629;54;20113;31
2023/01/19 10:53:21;;;;;;;13.15;8.30;;;4.90;99.90;;;;;;2602925;54;20146;31
2023/01/19 10:56:11;;;;;;;14.63;9.10;;;4.90;99.90;;;;;;2603701;54;20057;31
2023/01/19 10:58:48;;;;;;;19.35;8.10;;;4.90;99.90;;;;;;2603894;54;19964;31
2023/01/19 11:01:24;;;;;;;21.07;9.40;;;4.90;99.90;;;;;;2603580;54;20027;31
2023/01/19 11:04:20;;;;;;;14.27;8.15;;;4.90;99.90;;;;;;2603028;54;21083;31
2023/01/19 11:07:04;;;;;;;13.23;7.82;;;4.80;99.90;;;;;;2602779;54;20054;31
2023/01/19 11:09:40;;;;;;;12.75;9.00;;;4.80;99.90;;;;;;2602866;54;20105;31
2023/01/19 11:12:22;;;;;;;13.00;8.75;;;4.70;99.90;;;;;;2602324;54;20109;31
2023/01/19 11:15:00;;;;;;;13.90;8.32;;;4.60;99.90;;;;;;2602253;54;20947;31
2023/01/19 11:17:36;;;;;;;14.82;8.73;;;4.50;99.90;;;;;;2603386;54;20989;31
2023/01/19 11:20:21;;;;;;;12.93;7.20;;;4.50;99.90;;;;;;2603898;54;20030;31
2023/01/19 11:22:55;;;;;;;14.50;7.72;;;4.40;99.90;;;;;;2603885;54;20023;31
2023/01/19 11:25:31;;;;;;;15.07;8.25;;;4.30;99.90;;;;;;2622034;46;20137;31
2023/01/19 11:28:06;;;;;;;30.98;9.98;;;4.30;99.90;;;;;;2604016;54;20093;31
2023/01/19 11:30:55;;;;;;;12.80;7.80;;;4.20;99.90;;;;;;2603801;54;20841;31
2023/01/19 11:33:36;;;;;;;13.90;7.90;;;4.10;99.90;;;;;;2603710;54;20034;31
2023/01/19 11:36:19;;;;;;;12.80;7.60;;;4.10;99.90;;;;;;2603595;54;20038;31
2023/01/19 11:38:56;;;;;;;17.50;8.95;;;4.00;99.90;;;;;;2603586;54;20033;31
2023/01/19 11:41:32;;;;;;;11.95;6.88;;;4.00;99.90;;;;;;2603672;54;20955;31
2023/01/19 11:44:14;;;;;;;28.25;8.70;;;3.90;99.90;;;;;;2603682;54;20031;31
2023/01/19 11:49:26;;;;;;;13.70;6.53;;;3.80;99.90;;;;;;2603522;54;20971;31
2023/01/19 11:52:07;;;;;;;12.65;7.30;;;3.80;99.90;;;;;;2603573;54;20883;31
2023/01/19 11:54:43;;;;;;;8.85;5.43;;;3.70;99.90;;;;;;2603650;54;20022;31
2023/01/19 11:57:19;;;;;;;10.07;5.97;;;3.70;99.90;;;;;;2603117;54;20860;31
2023/01/19 11:59:53;;;;;;;8.95;5.95;;;3.60;99.90;;;;;;2603770;54;20868;31
2023/01/19 12:02:30;;;;;;;9.10;5.65;;;3.50;99.90;;;;;;2603410;54;20053;31
2023/01/19 12:05:08;;;;;;;21.55;6.20;;;3.50;99.90;;;;;;2603714;54;20098;31
2023/01/19 12:07:46;;;;;;;8.98;5.00;;;3.40;99.90;;;;;;2603822;54;20894;31
2023/01/19 12:10:26;;;;;;;11.80;5.80;;;3.40;99.90;;;;;;2612943;46;20018;31
2023/01/19 12:13:01;;;;;;;9.65;5.85;;;3.40;99.90;;;;;;2602864;54;20054;31
2023/01/19 12:15:38;;;;;;;10.27;5.40;;;3.30;99.90;;;;;;2603488;54;20030;31
2023/01/19 12:18:16;;;;;;;13.60;5.70;;;3.30;99.90;;;;;;2603608;54;20093;31
2023/01/19 12:20:52;;;;;;;15.00;6.15;;;3.30;99.90;;;;;;2603548;54;20094;31
2023/01/19 12:24:03;;;;;;;12.80;6.05;;;3.30;99.90;;;;;;2603755;54;20038;31
2023/01/19 12:26:44;;;;;;;9.52;4.72;;;3.30;99.90;;;;;;2603355;54;20853;31
2023/01/19 12:29:20;;;;;;;10.60;5.40;;;3.20;99.90;;;;;;2603533;54;20830;31
2023/01/19 12:32:19;;;;;;;16.37;6.30;;;3.30;99.90;;;;;;2603410;54;20037;31
2023/01/19 12:34:56;;;;;;;16.98;6.55;;;3.30;99.90;;;;;;2603760;54;19941;31
2023/01/19 12:37:44;;;;;;;15.25;5.65;;;3.30;99.90;;;;;;2603477;54;20940;31
2023/01/19 12:40:26;;;;;;;8.35;5.00;;;3.30;99.90;;;;;;2603243;54;20037;31
2023/01/19 12:43:07;;;;;;;8.55;5.18;;;3.20;99.90;;;;;;2603571;54;20266;31
2023/01/19 12:45:46;;;;;;;8.27;5.13;;;3.10;99.90;;;;;;2603527;54;20054;31
2023/01/19 12:48:26;;;;;;;8.60;5.05;;;3.10;99.90;;;;;;2603427;54;20031;31
2023/01/19 12:51:02;;;;;;;11.13;4.72;;;3.10;99.90;;;;;;2603392;54;20083;31
2023/01/19 12:53:37;;;;;;;7.90;5.15;;;3.00;99.90;;;;;;2603361;54;20081;31
2023/01/19 12:56:15;;;;;;;11.70;5.70;;;3.00;99.90;;;;;;2603550;54;20026;31
2023/01/19 12:58:54;;;;;;;12.07;5.38;;;3.00;99.90;;;;;;2603249;54;20941;31
2023/01/19 13:01:29;;;;;;;8.37;4.90;;;3.10;99.90;;;;;;2603377;54;20056;31
2023/01/19 13:04:06;;;;;;;9.55;4.57;;;3.10;99.90;;;;;;2603502;54;21078;31
2023/01/19 13:07:09;;;;;;;11.57;4.83;;;3.00;99.90;;;;;;2603196;54;20026;31
2023/01/19 13:09:44;;;;;;;9.05;5.03;;;3.10;99.90;;;;;;2603349;54;21051;31
2023/01/19 13:12:25;;;;;;;10.95;4.65;;;3.00;99.90;;;;;;2603085;54;20164;31
2023/01/19 13:15:35;;;;;;;8.57;4.75;;;3.00;99.90;;;;;;2603265;54;20798;31
2023/01/19 13:18:09;;;;;;;8.20;5.03;;;3.00;99.90;;;;;;2603137;54;20065;31
2023/01/19 13:20:50;;;;;;;10.05;5.03;;;3.00;99.90;;;;;;2603263;54;20767;31
2023/01/19 13:23:27;;;;;;;10.13;4.73;;;3.00;99.90;;;;;;2603262;54;20030;31
2023/01/19 13:26:03;;;;;;;;;;;2.90;99.90;;;;;;2603763;54;20741;31
2023/01/19 13:28:41;;;;;;;9.45;4.35;;;2.90;99.90;;;;;;2603462;54;20792;31
2023/01/19 13:31:22;;;;;;;7.40;4.55;;;2.90;99.90;;;;;;2603182;54;20832;31
2023/01/19 13:33:59;;;;;;;7.80;4.72;;;2.90;99.90;;;;;;2603374;54;20847;31
2023/01/19 13:36:34;;;;;;;7.30;4.63;;;2.90;99.90;;;;;;2603510;54;20053;31
2023/01/19 13:39:13;;;;;;;11.00;4.90;;;2.90;99.90;;;;;;2603392;54;20284;31
2023/01/19 13:41:51;;;;;;;10.35;4.88;;;2.80;99.90;;;;;;2603370;54;20027;31
2023/01/19 13:44:28;;;;;;;11.32;5.40;;;2.80;99.90;;;;;;2603387;54;20034;31
2023/01/19 13:47:14;;;;;;;11.20;5.45;;;2.80;99.90;;;;;;2603268;54;20026;31
2023/01/19 13:49:50;;;;;;;8.02;4.93;;;2.90;99.90;;;;;;2603277;54;20037;31
2023/01/19 13:52:26;;;;;;;8.13;5.07;;;2.90;99.90;;;;;;2603276;54;20161;31
2023/01/19 13:55:04;;;;;;;12.27;5.80;;;2.90;99.90;;;;;;2603266;54;20030;31
2023/01/19 13:57:43;;;;;;;14.35;5.45;;;2.90;99.90;;;;;;2603244;54;20081;31
2023/01/19 14:00:21;;;;;;;10.85;5.80;;;2.90;99.90;;;;;;2603377;54;20038;31
2023/01/19 14:03:01;;;;;;;11.65;5.47;;;2.90;99.90;;;;;;2603468;54;20026;31